Time;durP1;ratioP1;P1;durP2;ratioP2;P2;SDS_P1;SDS_P2;PMS_P1;PMS_P2;Temp;Humidity;BMP_temperature;BMP_pressure;BME280_temperature;BME280_humidity;BME280_pressure;Samples;Min_cycle;Max_cycle;Signal;HPM_P1;HPM_P2
2021/01/08 00:01:42;;;;;;;2.13;1.10;;;5.10;91.30;;;;;;5010227;28;20482;-80
2021/01/08 00:04:08;;;;;;;1.95;0.90;;;5.10;91.20;;;;;;5010828;28;20021;-79
2021/01/08 00:06:34;;;;;;;2.90;1.52;;;5.10;91.20;;;;;;5027173;28;20014;-80
2021/01/08 00:09:00;;;;;;;1.83;1.48;;;5.10;91.20;;;;;;5012032;28;20018;-81
2021/01/08 00:11:26;;;;;;;3.33;1.55;;;5.10;91.20;;;;;;5011175;28;20411;-81
2021/01/08 00:13:52;;;;;;;2.97;1.17;;;5.10;91.20;;;;;;5010580;28;20487;-81
2021/01/08 00:16:18;;;;;;;2.65;1.38;;;5.10;91.20;;;;;;5012100;28;20041;-80
2021/01/08 00:18:44;;;;;;;2.10;1.40;;;5.10;91.20;;;;;;5010250;28;20109;-80
2021/01/08 00:21:11;;;;;;;3.70;1.13;;;5.10;91.20;;;;;;5012288;28;20026;-80
2021/01/08 00:23:36;;;;;;;3.40;1.65;;;5.00;91.30;;;;;;5010607;28;20072;-80
2021/01/08 00:26:02;;;;;;;1.95;1.23;;;5.00;91.30;;;;;;5012758;28;20018;-79
2021/01/08 00:28:28;;;;;;;2.22;1.48;;;5.00;91.30;;;;;;5015737;28;20021;-79
2021/01/08 00:30:53;;;;;;;1.90;1.10;;;5.00;91.30;;;;;;5014248;28;20451;-79
2021/01/08 00:33:19;;;;;;;2.80;1.15;;;5.10;91.30;;;;;;5014747;28;20029;-78
2021/01/08 00:35:45;;;;;;;4.53;1.10;;;5.00;91.50;;;;;;5028884;28;20029;-79
2021/01/08 00:38:11;;;;;;;1.55;0.90;;;5.10;91.20;;;;;;5013048;28;20026;-79
2021/01/08 00:40:37;;;;;;;3.25;1.42;;;5.10;91.20;;;;;;5014535;28;20030;-80
2021/01/08 00:43:03;;;;;;;1.85;1.00;;;5.10;91.20;;;;;;5013831;28;20022;-79
2021/01/08 00:45:29;;;;;;;2.58;1.10;;;5.00;91.20;;;;;;5012844;28;20495;-79
2021/01/08 00:47:55;;;;;;;2.88;1.38;;;5.00;91.30;;;;;;5010853;28;20104;-79
2021/01/08 00:50:20;;;;;;;1.25;1.15;;;5.00;91.30;;;;;;5011542;28;20103;-79
2021/01/08 00:52:46;;;;;;;1.52;1.05;;;5.00;91.20;;;;;;5031418;28;20024;-79
2021/01/08 00:55:12;;;;;;;2.33;1.13;;;5.00;91.30;;;;;;5014100;28;20020;-79
2021/01/08 00:57:38;;;;;;;3.17;1.13;;;5.00;91.20;;;;;;5031353;28;20419;-80
2021/01/08 01:00:05;;;;;;;1.92;1.08;;;5.00;91.30;;;;;;5014395;28;20385;-79
2021/01/08 01:02:34;;;;;;;0.95;0.90;;;5.00;91.30;;;;;;5014414;28;20378;-80
2021/01/08 01:05:00;;;;;;;2.33;1.23;;;5.00;91.30;;;;;;5030772;28;20018;-79
2021/01/08 01:07:26;;;;;;;1.58;0.95;;;5.00;91.20;;;;;;5014476;28;20018;-79
2021/01/08 01:09:52;;;;;;;2.00;1.35;;;5.10;91.20;;;;;;5031426;28;20253;-79
2021/01/08 01:12:18;;;;;;;1.80;1.23;;;5.10;91.20;;;;;;5014253;28;20017;-79
2021/01/08 01:14:44;;;;;;;1.35;1.23;;;5.10;91.10;;;;;;5016655;28;20032;-78
2021/01/08 01:17:10;;;;;;;1.42;0.88;;;5.10;91.10;;;;;;5035803;28;20025;-79
2021/01/08 01:19:36;;;;;;;1.95;1.23;;;5.20;91.10;;;;;;5034161;28;20117;-80
2021/01/08 01:22:02;;;;;;;1.70;1.10;;;5.10;91.10;;;;;;5018058;28;20100;-79
2021/01/08 01:24:28;;;;;;;2.40;0.90;;;5.10;91.10;;;;;;5017970;28;20020;-79
2021/01/08 01:27:00;;;;;;;2.33;1.20;;;5.10;91.10;;;;;;5033887;28;20018;-79
2021/01/08 01:29:26;;;;;;;2.05;1.10;;;5.10;91.10;;;;;;5035631;28;20044;-79
2021/01/08 01:31:52;;;;;;;2.17;1.20;;;5.10;91.20;;;;;;5035309;28;20366;-79
2021/01/08 01:34:18;;;;;;;2.05;1.35;;;5.10;91.20;;;;;;5036371;28;20052;-79
2021/01/08 01:36:45;;;;;;;4.03;1.48;;;5.10;91.20;;;;;;5035906;28;20108;-79
2021/01/08 01:39:14;;;;;;;2.38;1.00;;;5.10;91.10;;;;;;5018430;28;20068;-79
2021/01/08 01:41:41;;;;;;;1.85;0.85;;;5.10;91.20;;;;;;5034195;28;20504;-80
2021/01/08 01:44:07;;;;;;;1.73;1.13;;;5.00;91.20;;;;;;5018273;28;20336;-80
2021/01/08 01:46:33;;;;;;;2.40;1.13;;;5.00;91.30;;;;;;5035483;28;20072;-78
2021/01/08 01:48:59;;;;;;;2.55;1.30;;;5.00;91.20;;;;;;5035129;28;20096;-80
2021/01/08 01:51:25;;;;;;;3.33;1.17;;;5.00;91.20;;;;;;5035447;28;20531;-80
2021/01/08 01:53:52;;;;;;;1.42;0.82;;;5.00;91.30;;;;;;5034827;28;20014;-80
2021/01/08 01:56:17;;;;;;;1.35;1.13;;;5.00;91.30;;;;;;5035197;28;20022;-79
2021/01/08 01:58:43;;;;;;;1.33;0.90;;;4.90;91.30;;;;;;5016413;28;20391;-79
2021/01/08 02:01:10;;;;;;;2.15;0.82;;;4.90;91.40;;;;;;5035231;28;20026;-80
2021/01/08 02:03:51;;;;;;;0.88;0.77;;;4.90;91.50;;;;;;5034067;28;20035;-80
2021/01/08 02:06:25;;;;;;;1.20;0.90;;;4.90;91.50;;;;;;5017385;28;20045;-79
2021/01/08 02:08:57;;;;;;;2.30;1.08;;;4.80;91.50;;;;;;5033313;28;20028;-80
2021/01/08 02:11:30;;;;;;;1.75;0.85;;;4.80;91.50;;;;;;5034716;28;20419;-80
2021/01/08 02:14:20;;;;;;;1.35;0.80;;;4.90;91.50;;;;;;5016725;28;20064;-80
2021/01/08 02:16:49;;;;;;;1.55;0.88;;;4.80;91.40;;;;;;5034118;28;20021;-80
2021/01/08 02:19:42;;;;;;;1.13;0.90;;;4.90;91.40;;;;;;5011744;28;20111;-79
2021/01/08 02:22:07;;;;;;;1.70;1.00;;;4.90;91.40;;;;;;5013282;28;20097;-80
2021/01/08 02:24:40;;;;;;;0.95;0.80;;;4.90;91.40;;;;;;5014306;28;20503;-80
2021/01/08 02:27:06;;;;;;;1.48;1.08;;;4.90;91.40;;;;;;4997176;28;20422;-79
2021/01/08 02:29:32;;;;;;;1.67;0.90;;;4.80;91.40;;;;;;4997409;28;20017;-80
2021/01/08 02:31:58;;;;;;;2.03;0.95;;;4.80;91.50;;;;;;5014248;28;20685;-79
2021/01/08 02:34:25;;;;;;;2.45;1.67;;;4.80;91.60;;;;;;4996942;28;20447;-80
2021/01/08 02:36:52;;;;;;;1.20;0.85;;;4.80;91.60;;;;;;5014425;28;20447;-80
2021/01/08 02:39:19;;;;;;;1.30;0.80;;;4.80;91.60;;;;;;4996944;28;20459;-80
2021/01/08 02:41:46;;;;;;;2.83;1.10;;;4.80;91.50;;;;;;5013861;28;20087;-80
2021/01/08 02:44:16;;;;;;;3.65;1.20;;;4.70;91.60;;;;;;4997062;28;20018;-79
2021/01/08 02:46:43;;;;;;;1.90;1.30;;;4.70;91.60;;;;;;4996622;28;20367;-79
2021/01/08 02:49:09;;;;;;;1.80;1.00;;;4.80;91.60;;;;;;4996789;28;20052;-80
2021/01/08 02:51:35;;;;;;;1.38;1.08;;;4.70;91.60;;;;;;5013848;28;20049;-80
2021/01/08 02:54:02;;;;;;;1.58;0.82;;;4.70;91.60;;;;;;5012370;28;20030;-79
2021/01/08 02:56:44;;;;;;;2.58;1.40;;;4.80;91.60;;;;;;4996892;28;20060;-79
2021/01/08 02:59:12;;;;;;;1.30;1.00;;;4.80;91.50;;;;;;4996864;28;20017;-80
2021/01/08 03:01:39;;;;;;;1.75;1.08;;;4.90;91.50;;;;;;5014221;28;20105;-80
2021/01/08 03:04:05;;;;;;;3.38;1.33;;;4.90;91.40;;;;;;4996196;28;20022;-79
2021/01/08 03:06:32;;;;;;;1.85;1.00;;;4.90;91.30;;;;;;5014249;28;20108;-80
2021/01/08 03:08:59;;;;;;;0.65;0.65;;;5.00;91.30;;;;;;5013383;28;20032;-80
2021/01/08 03:11:25;;;;;;;1.73;1.60;;;4.90;91.30;;;;;;5032104;28;20116;-81
2021/01/08 03:13:52;;;;;;;1.85;1.00;;;4.90;91.30;;;;;;5015203;28;20440;-80
2021/01/08 03:16:18;;;;;;;2.35;1.00;;;4.90;91.30;;;;;;5033324;28;20068;-79
2021/01/08 03:18:44;;;;;;;2.55;1.13;;;4.90;91.30;;;;;;5015122;28;20443;-81
2021/01/08 03:21:09;;;;;;;2.42;1.20;;;4.90;91.30;;;;;;5033662;28;20024;-79
2021/01/08 03:23:35;;;;;;;1.55;1.17;;;4.90;91.30;;;;;;5015733;28;20022;-80
2021/01/08 03:26:01;;;;;;;2.13;1.00;;;4.90;91.30;;;;;;5032943;28;20435;-80
2021/01/08 03:28:26;;;;;;;1.48;1.00;;;4.90;91.40;;;;;;5015365;28;20370;-80
2021/01/08 03:30:52;;;;;;;1.50;1.13;;;4.90;91.40;;;;;;5032988;28;20017;-78
2021/01/08 03:33:17;;;;;;;1.85;1.23;;;4.90;91.30;;;;;;5033100;28;20029;-79
2021/01/08 03:35:44;;;;;;;2.00;1.00;;;4.90;91.30;;;;;;5033361;28;20519;-80
2021/01/08 03:38:09;;;;;;;1.90;1.30;;;5.00;91.30;;;;;;5033240;28;20028;-80
2021/01/08 03:40:36;;;;;;;2.53;0.98;;;4.90;91.30;;;;;;5032764;28;20409;-80
2021/01/08 03:43:03;;;;;;;1.20;1.00;;;5.00;91.30;;;;;;5031261;28;20017;-80
2021/01/08 03:45:28;;;;;;;2.83;1.23;;;5.00;91.20;;;;;;5015588;28;20029;-79
2021/01/08 03:47:54;;;;;;;2.90;1.40;;;5.00;91.20;;;;;;5032596;28;20021;-79
2021/01/08 03:50:19;;;;;;;3.35;1.20;;;5.10;91.20;;;;;;5033084;28;20032;-79
2021/01/08 03:52:45;;;;;;;3.22;1.50;;;5.10;91.10;;;;;;5032614;28;20036;-84
2021/01/08 03:55:11;;;;;;;2.55;1.00;;;5.00;91.20;;;;;;5033180;28;20026;-79
2021/01/08 03:57:36;;;;;;;2.83;1.45;;;5.00;91.20;;;;;;5032366;28;20367;-80
2021/01/08 04:00:06;;;;;;;1.35;1.05;;;5.00;91.20;;;;;;5032162;28;20044;-80
2021/01/08 04:02:32;;;;;;;1.75;1.00;;;5.10;91.20;;;;;;5032352;28;20022;-79
2021/01/08 04:04:57;;;;;;;2.58;1.17;;;5.10;91.10;;;;;;5013822;28;20362;-80
2021/01/08 04:07:23;;;;;;;1.48;0.90;;;5.10;91.10;;;;;;5030753;28;20447;-80
2021/01/08 04:09:48;;;;;;;2.15;1.02;;;5.10;91.10;;;;;;5031421;28;20021;-80
2021/01/08 04:12:14;;;;;;;1.80;1.13;;;5.10;91.10;;;;;;5031786;28;20033;-80
2021/01/08 04:14:40;;;;;;;3.05;1.33;;;5.10;91.10;;;;;;5031315;28;20018;-80
2021/01/08 04:17:05;;;;;;;1.73;1.00;;;5.10;91.10;;;;;;5033094;28;20026;-79
2021/01/08 04:19:31;;;;;;;2.63;1.20;;;5.10;91.00;;;;;;5032175;28;20026;-81
2021/01/08 04:21:56;;;;;;;1.33;1.10;;;5.10;91.00;;;;;;5031227;28;20064;-80
2021/01/08 04:24:22;;;;;;;1.77;1.30;;;5.10;91.10;;;;;;5032253;28;20480;-79
2021/01/08 04:26:47;;;;;;;2.13;1.40;;;5.10;91.00;;;;;;5031997;28;20025;-80
2021/01/08 04:29:13;;;;;;;4.10;1.17;;;5.10;91.00;;;;;;5014900;28;20072;-79
2021/01/08 04:31:41;;;;;;;2.08;1.00;;;5.20;91.10;;;;;;5030973;28;20045;-79
2021/01/08 04:34:07;;;;;;;2.70;1.60;;;5.10;91.00;;;;;;5014015;28;20454;-79
2021/01/08 04:36:33;;;;;;;2.45;1.10;;;5.10;91.10;;;;;;5032268;28;20037;-79
2021/01/08 04:38:59;;;;;;;2.25;1.05;;;5.10;91.10;;;;;;5031839;28;20439;-79
2021/01/08 04:41:25;;;;;;;2.85;1.38;;;5.10;91.10;;;;;;5032492;28;20026;-79
2021/01/08 04:43:51;;;;;;;2.53;1.27;;;5.20;91.10;;;;;;5031751;28;20122;-79
2021/01/08 04:46:27;;;;;;;3.20;1.20;;;5.20;91.00;;;;;;5032387;28;20021;-79
2021/01/08 04:48:57;;;;;;;2.53;1.20;;;5.20;91.00;;;;;;5031466;28;20025;-79
2021/01/08 04:51:24;;;;;;;1.95;1.05;;;5.20;90.90;;;;;;5031987;28;20039;-79
2021/01/08 04:53:50;;;;;;;1.58;1.13;;;5.10;90.90;;;;;;5031953;28;20021;-79
2021/01/08 04:56:18;;;;;;;1.30;0.98;;;5.20;91.00;;;;;;5031790;28;20021;-79
2021/01/08 04:58:45;;;;;;;2.22;1.20;;;5.10;91.10;;;;;;5032134;28;20076;-78
2021/01/08 05:01:11;;;;;;;3.40;1.45;;;5.10;91.10;;;;;;5031298;28;20018;-79
2021/01/08 05:03:37;;;;;;;2.50;1.35;;;5.00;91.20;;;;;;5031842;28;20033;-79
2021/01/08 05:06:03;;;;;;;2.10;1.02;;;5.00;91.20;;;;;;5031541;28;20064;-79
2021/01/08 05:08:29;;;;;;;1.52;1.10;;;5.10;91.20;;;;;;5014272;28;20026;-79
2021/01/08 05:10:58;;;;;;;2.17;1.00;;;5.10;91.10;;;;;;5031846;28;20478;-80
2021/01/08 05:13:34;;;;;;;3.45;1.52;;;5.10;91.20;;;;;;5030667;28;20025;-79
2021/01/08 05:16:01;;;;;;;1.63;0.98;;;5.10;91.10;;;;;;5031575;28;20025;-80
2021/01/08 05:18:30;;;;;;;3.38;1.30;;;5.10;91.00;;;;;;5014111;28;20045;-79
2021/01/08 05:20:56;;;;;;;2.67;1.38;;;5.20;91.00;;;;;;5031506;28;20064;-80
2021/01/08 05:23:22;;;;;;;4.10;1.45;;;5.20;91.00;;;;;;5014176;28;20049;-80
2021/01/08 05:25:48;;;;;;;3.17;1.50;;;5.20;91.00;;;;;;5030614;28;20079;-80
2021/01/08 05:28:18;;;;;;;2.38;1.25;;;5.20;91.00;;;;;;5013781;28;20017;-81
2021/01/08 05:30:45;;;;;;;2.33;1.38;;;5.20;91.00;;;;;;5031674;28;20458;-80
2021/01/08 05:33:16;;;;;;;1.90;1.25;;;5.20;91.00;;;;;;5013567;28;20459;-79
2021/01/08 05:35:43;;;;;;;2.05;0.95;;;5.20;91.00;;;;;;5031038;28;20026;-80
2021/01/08 05:38:10;;;;;;;3.80;1.75;;;5.30;91.00;;;;;;5012646;28;20018;-80
2021/01/08 05:40:41;;;;;;;2.13;1.15;;;5.30;90.90;;;;;;5030153;28;20029;-80
2021/01/08 05:43:07;;;;;;;2.67;1.40;;;5.30;90.90;;;;;;5012405;28;20024;-80
2021/01/08 05:45:33;;;;;;;2.88;1.48;;;5.30;90.90;;;;;;5013288;28;20017;-80
2021/01/08 05:48:02;;;;;;;2.10;1.10;;;5.30;90.90;;;;;;5029528;28;20339;-80
2021/01/08 05:50:29;;;;;;;1.25;0.98;;;5.30;90.80;;;;;;5030204;28;20172;-80
2021/01/08 05:53:11;;;;;;;3.83;1.45;;;5.20;90.80;;;;;;5031228;28;20419;-80
2021/01/08 05:55:39;;;;;;;2.40;1.40;;;5.20;90.90;;;;;;5030258;28;20030;-80
2021/01/08 05:58:19;;;;;;;2.17;1.50;;;5.20;91.00;;;;;;5029940;28;20021;-80
2021/01/08 06:01:00;;;;;;;2.22;1.20;;;5.20;91.00;;;;;;5032925;28;20025;-80
2021/01/08 06:03:26;;;;;;;2.15;1.40;;;5.10;91.00;;;;;;5030483;28;20024;-75
2021/01/08 06:05:59;;;;;;;2.80;1.02;;;5.00;91.10;;;;;;5032494;28;20075;-74
2021/01/08 06:08:30;;;;;;;2.47;1.13;;;5.00;91.10;;;;;;5032583;28;20022;-74
2021/01/08 06:10:58;;;;;;;2.45;1.10;;;5.00;91.20;;;;;;5032260;28;20392;-74
2021/01/08 06:13:31;;;;;;;5.57;1.30;;;5.00;91.20;;;;;;5032228;28;20489;-73
2021/01/08 06:15:59;;;;;;;2.13;0.90;;;5.00;91.20;;;;;;5013471;28;20481;-73
2021/01/08 06:18:26;;;;;;;4.18;1.20;;;5.00;91.20;;;;;;5032349;28;20136;-72
2021/01/08 06:20:54;;;;;;;3.22;1.13;;;5.00;91.20;;;;;;5014418;28;20079;-72
2021/01/08 06:23:58;;;;;;;1.98;1.15;;;5.00;91.20;;;;;;5031535;28;20079;-75
2021/01/08 06:26:26;;;;;;;2.25;1.17;;;5.00;91.10;;;;;;5030815;28;20038;-76
2021/01/08 06:28:59;;;;;;;2.10;1.10;;;5.00;91.20;;;;;;5034793;28;20021;-76
2021/01/08 06:31:46;;;;;;;2.00;1.05;;;5.00;91.10;;;;;;5034517;28;20018;-76
2021/01/08 06:34:11;;;;;;;2.72;1.60;;;5.00;91.10;;;;;;5032718;28;20086;-76
2021/01/08 06:36:45;;;;;;;2.53;1.42;;;5.00;91.10;;;;;;5034460;28;20025;-76
2021/01/08 06:39:21;;;;;;;2.72;1.20;;;5.00;91.10;;;;;;5032665;28;20017;-76
2021/01/08 06:41:52;;;;;;;3.03;1.10;;;5.00;91.10;;;;;;5034410;28;20032;-76
2021/01/08 06:44:27;;;;;;;2.75;1.58;;;5.10;91.10;;;;;;5032742;28;20116;-77
2021/01/08 06:46:53;;;;;;;5.47;2.17;;;5.00;91.00;;;;;;5034338;28;20451;-76
2021/01/08 06:49:19;;;;;;;3.15;1.25;;;5.10;91.00;;;;;;5033739;28;20036;-76
2021/01/08 06:51:45;;;;;;;3.15;1.40;;;5.10;91.00;;;;;;5034299;28;20068;-77
2021/01/08 06:54:12;;;;;;;3.30;1.50;;;5.10;91.00;;;;;;5033320;28;20110;-76
2021/01/08 06:56:45;;;;;;;2.55;1.60;;;5.10;91.00;;;;;;5034573;28;20036;-76
2021/01/08 06:59:26;;;;;;;4.53;1.70;;;5.10;91.10;;;;;;5033522;28;20025;-76
2021/01/08 07:02:04;;;;;;;;;;;5.10;91.00;;;;;;5033280;28;20037;-76
2021/01/08 07:04:31;;;;;;;2.42;1.23;;;5.00;91.00;;;;;;5033914;28;19984;-76
2021/01/08 07:07:02;;;;;;;1.65;1.05;;;5.00;91.00;;;;;;5034123;28;20017;-76
2021/01/08 07:09:33;;;;;;;2.97;1.63;;;5.10;91.00;;;;;;5032555;28;20032;-76
2021/01/08 07:11:59;;;;;;;2.42;1.40;;;5.10;91.00;;;;;;5015206;28;20030;-86
2021/01/08 07:14:28;;;;;;;3.58;1.20;;;5.10;91.00;;;;;;5034649;28;20025;-76
2021/01/08 07:16:55;;;;;;;4.57;1.33;;;5.10;90.90;;;;;;5033772;28;20025;-76
2021/01/08 07:19:27;;;;;;;4.72;1.20;;;5.20;90.90;;;;;;5033312;28;20025;-76
2021/01/08 07:21:54;;;;;;;3.00;1.73;;;5.20;90.90;;;;;;5032502;28;20045;-76
2021/01/08 07:24:39;;;;;;;3.75;1.65;;;5.20;91.00;;;;;;5015668;28;20021;-78
2021/01/08 07:27:25;;;;;;;2.13;1.30;;;5.20;90.90;;;;;;5015653;28;20549;-79
2021/01/08 07:29:56;;;;;;;4.07;1.40;;;5.20;91.00;;;;;;5032261;28;20066;-77
2021/01/08 07:32:34;;;;;;;3.25;1.33;;;5.20;91.00;;;;;;5033022;28;20133;-77
2021/01/08 07:35:13;;;;;;;3.55;1.40;;;5.20;91.00;;;;;;5015441;28;20022;-85
2021/01/08 07:38:01;;;;;;;2.80;1.60;;;5.20;91.00;;;;;;5033686;28;20467;-77
2021/01/08 07:40:30;;;;;;;3.22;1.83;;;5.20;91.00;;;;;;5033340;28;20482;-77
2021/01/08 07:42:56;;;;;;;2.58;1.05;;;5.10;91.00;;;;;;5033266;28;20032;-77
2021/01/08 07:45:22;;;;;;;3.75;1.42;;;5.20;91.00;;;;;;5032646;28;20491;-77
2021/01/08 07:47:48;;;;;;;3.70;1.10;;;5.20;91.00;;;;;;5033846;28;20045;-77
2021/01/08 07:50:15;;;;;;;3.03;1.13;;;5.20;90.90;;;;;;5031657;28;20455;-77
2021/01/08 07:52:45;;;;;;;1.98;1.10;;;5.20;91.00;;;;;;5032746;28;20053;-76
2021/01/08 07:55:45;;;;;;;2.35;1.10;;;5.20;91.00;;;;;;5031242;28;20095;-77
2021/01/08 07:58:11;;;;;;;2.92;1.40;;;5.20;91.00;;;;;;5032562;28;20021;-77
2021/01/08 08:00:36;;;;;;;4.75;1.77;;;5.20;91.00;;;;;;5033231;28;20017;-76
2021/01/08 08:03:02;;;;;;;2.80;1.30;;;5.30;90.90;;;;;;5032786;28;20029;-86
2021/01/08 08:05:29;;;;;;;2.75;1.20;;;5.30;90.90;;;;;;5033044;28;20366;-77
2021/01/08 08:07:57;;;;;;;3.22;1.42;;;5.30;90.80;;;;;;5032755;28;20017;-76
2021/01/08 08:10:25;;;;;;;2.38;1.20;;;5.30;90.80;;;;;;5032457;28;20083;-77
2021/01/08 08:12:52;;;;;;;1.35;0.98;;;5.30;90.80;;;;;;5031394;28;20113;-76
2021/01/08 08:15:19;;;;;;;3.28;1.55;;;5.30;90.80;;;;;;5032296;28;20025;-77
2021/01/08 08:17:45;;;;;;;4.65;1.70;;;5.30;90.90;;;;;;5031502;28;20044;-77
2021/01/08 08:20:23;;;;;;;4.07;1.30;;;5.40;90.90;;;;;;5014077;28;20022;-77
2021/01/08 08:22:55;;;;;;;1.75;1.02;;;5.40;90.80;;;;;;5032025;28;20080;-76
2021/01/08 08:25:24;;;;;;;3.15;1.08;;;5.40;90.80;;;;;;5032094;28;20101;-76
2021/01/08 08:27:55;;;;;;;4.22;1.60;;;5.40;90.90;;;;;;5032206;28;20040;-77
2021/01/08 08:30:21;;;;;;;1.97;1.00;;;5.40;90.90;;;;;;5014295;28;20413;-76
2021/01/08 08:32:48;;;;;;;2.55;1.38;;;5.40;90.80;;;;;;5014394;28;20052;-77
2021/01/08 08:35:15;;;;;;;2.00;1.33;;;5.40;90.80;;;;;;5032101;28;20021;-77
2021/01/08 08:37:47;;;;;;;2.67;1.17;;;5.30;90.80;;;;;;5032591;28;20021;-77
2021/01/08 08:40:13;;;;;;;2.15;1.10;;;5.40;90.90;;;;;;5013991;28;20017;-77
2021/01/08 08:42:40;;;;;;;3.60;1.23;;;5.40;91.10;;;;;;5032307;28;20031;-77
2021/01/08 08:45:20;;;;;;;2.30;1.02;;;5.40;90.80;;;;;;5031066;28;20472;-84
2021/01/08 08:47:48;;;;;;;2.40;1.38;;;5.50;90.80;;;;;;5032665;28;20013;-76
2021/01/08 08:50:19;;;;;;;1.30;1.20;;;5.40;90.80;;;;;;5031590;28;20105;-77
2021/01/08 08:52:45;;;;;;;3.88;1.48;;;5.40;90.90;;;;;;5031241;28;20116;-76
2021/01/08 08:55:31;;;;;;;4.25;1.40;;;5.30;90.90;;;;;;5046763;28;20109;-76
2021/01/08 08:58:10;;;;;;;2.67;1.13;;;5.30;90.90;;;;;;5032450;28;20017;-75
2021/01/08 09:00:38;;;;;;;3.58;1.95;;;5.40;90.90;;;;;;5032190;28;20525;-76
2021/01/08 09:03:26;;;;;;;3.25;1.40;;;5.40;90.90;;;;;;5030847;28;20028;-75
2021/01/08 09:05:52;;;;;;;1.88;1.02;;;5.40;90.80;;;;;;5032437;28;20517;-75
2021/01/08 09:08:26;;;;;;;3.42;1.30;;;5.40;90.80;;;;;;5031702;28;20026;-75
2021/01/08 09:10:57;;;;;;;2.90;1.35;;;5.40;90.80;;;;;;5031996;28;20318;-76
2021/01/08 09:13:31;;;;;;;2.25;1.25;;;5.40;90.80;;;;;;5031578;28;20034;-76
2021/01/08 09:16:10;;;;;;;1.25;0.93;;;5.40;90.80;;;;;;5032002;28;20021;-77
2021/01/08 09:18:59;;;;;;;1.65;0.90;;;5.50;90.80;;;;;;5030701;28;20025;-76
2021/01/08 09:21:28;;;;;;;2.28;1.52;;;5.50;90.70;;;;;;5030080;28;20056;-76
2021/01/08 09:23:59;;;;;;;3.80;1.35;;;5.50;90.70;;;;;;5031969;28;20033;-76
2021/01/08 09:26:25;;;;;;;3.88;1.02;;;5.60;90.70;;;;;;5031440;28;20017;-77
2021/01/08 09:28:55;;;;;;;1.30;0.90;;;5.50;90.60;;;;;;5030599;28;20025;-75
2021/01/08 09:31:37;;;;;;;2.28;1.10;;;5.60;90.60;;;;;;5013614;28;20010;-76
2021/01/08 09:34:03;;;;;;;1.48;1.00;;;5.70;90.50;;;;;;5030619;28;20025;-76
2021/01/08 09:36:31;;;;;;;1.98;0.98;;;5.70;90.50;;;;;;5035267;28;20076;-76
2021/01/08 09:39:01;;;;;;;1.50;0.80;;;5.70;90.40;;;;;;5035218;28;20355;-76
2021/01/08 09:41:28;;;;;;;1.30;0.70;;;5.80;90.40;;;;;;5017491;28;20049;-77
2021/01/08 09:44:01;;;;;;;1.27;0.90;;;5.80;90.30;;;;;;5034162;28;20022;-76
2021/01/08 09:46:27;;;;;;;1.33;0.80;;;5.80;90.30;;;;;;5017318;28;20391;-76
2021/01/08 09:48:54;;;;;;;1.42;0.85;;;5.80;90.30;;;;;;5035429;28;20435;-76
2021/01/08 09:51:21;;;;;;;1.98;0.82;;;5.80;90.30;;;;;;5034727;28;20041;-76
2021/01/08 09:53:56;;;;;;;1.40;0.80;;;5.80;90.30;;;;;;5035338;28;20033;-76
2021/01/08 09:56:22;;;;;;;0.57;0.57;;;5.80;90.20;;;;;;5016580;28;20017;-75
2021/01/08 09:59:07;;;;;;;1.42;0.73;;;5.80;90.30;;;;;;5017248;28;20167;-76
2021/01/08 10:01:54;;;;;;;1.75;0.60;;;5.70;90.20;;;;;;5033214;28;20022;-76
2021/01/08 10:04:30;;;;;;;1.15;0.60;;;5.80;90.30;;;;;;5034391;28;20366;-76
2021/01/08 10:07:14;;;;;;;0.80;0.63;;;5.80;90.20;;;;;;5017389;28;20104;-75
2021/01/08 10:09:51;;;;;;;1.02;0.68;;;5.90;90.10;;;;;;5033832;28;20021;-76
2021/01/08 10:12:24;;;;;;;1.17;0.70;;;6.00;90.10;;;;;;5034321;28;20040;-77
2021/01/08 10:14:49;;;;;;;0.50;0.50;;;6.00;90.00;;;;;;5035146;28;20022;-76
2021/01/08 10:17:17;;;;;;;1.40;0.90;;;6.00;90.00;;;;;;5034129;28;20028;-77
2021/01/08 10:19:46;;;;;;;0.75;0.65;;;6.00;90.00;;;;;;5034731;28;20021;-76
2021/01/08 10:22:13;;;;;;;1.15;0.68;;;6.00;90.00;;;;;;5033654;28;20244;-76
2021/01/08 10:24:38;;;;;;;2.17;0.77;;;6.00;90.00;;;;;;5033531;28;20025;-76
2021/01/08 10:27:05;;;;;;;1.52;0.80;;;6.00;90.30;;;;;;5034741;28;20017;-76
2021/01/08 10:29:40;;;;;;;1.60;1.00;;;6.00;90.00;;;;;;5034332;28;20021;-76
2021/01/08 10:32:13;;;;;;;1.65;0.90;;;6.10;90.00;;;;;;5034754;28;20021;-77
2021/01/08 10:34:43;;;;;;;1.52;0.60;;;6.10;90.00;;;;;;5033362;28;20139;-76
2021/01/08 10:37:19;;;;;;;1.93;0.90;;;6.10;90.00;;;;;;5017031;28;20026;-76
2021/01/08 10:39:46;;;;;;;1.27;0.88;;;6.10;89.90;;;;;;5034956;28;20095;-76
2021/01/08 10:42:14;;;;;;;1.20;0.93;;;6.20;89.90;;;;;;5034392;28;20018;-76
2021/01/08 10:44:40;;;;;;;1.50;0.80;;;6.20;89.70;;;;;;5034715;28;20045;-76
2021/01/08 10:47:06;;;;;;;5.38;1.10;;;6.20;89.70;;;;;;5033324;28;20053;-76
2021/01/08 10:49:32;;;;;;;0.95;0.80;;;6.20;89.70;;;;;;5033782;28;20021;-76
2021/01/08 10:51:57;;;;;;;2.63;1.05;;;6.30;89.70;;;;;;5034225;28;20470;-76
2021/01/08 10:54:23;;;;;;;1.15;1.00;;;6.20;89.70;;;;;;5033574;28;20052;-76
2021/01/08 10:56:49;;;;;;;1.95;0.70;;;6.20;89.70;;;;;;5034409;28;20067;-76
2021/01/08 10:59:15;;;;;;;1.85;0.90;;;6.30;89.70;;;;;;5016251;28;20056;-76
2021/01/08 11:01:43;;;;;;;2.35;1.00;;;6.30;89.60;;;;;;5034550;28;20438;-75
2021/01/08 11:04:19;;;;;;;0.88;0.70;;;6.40;89.60;;;;;;5033829;28;20029;-76
2021/01/08 11:06:45;;;;;;;0.73;0.68;;;6.40;89.40;;;;;;5033896;28;20108;-76
2021/01/08 11:09:10;;;;;;;0.70;0.70;;;6.40;89.30;;;;;;5032568;28;20117;-76
2021/01/08 11:11:37;;;;;;;0.88;0.60;;;6.40;89.20;;;;;;5033305;28;20021;-77
2021/01/08 11:14:03;;;;;;;1.80;0.90;;;6.40;89.40;;;;;;5033616;28;20087;-77
2021/01/08 11:16:30;;;;;;;0.82;0.60;;;6.30;89.40;;;;;;5048484;28;20021;-77
2021/01/08 11:18:56;;;;;;;1.23;0.77;;;6.30;89.40;;;;;;5032513;28;20017;-77
2021/01/08 11:21:23;;;;;;;1.15;1.00;;;6.30;89.40;;;;;;5015131;28;20021;-77
2021/01/08 11:23:49;;;;;;;2.03;0.98;;;6.40;89.40;;;;;;5033409;28;20506;-76
2021/01/08 11:26:28;;;;;;;2.28;0.90;;;6.40;89.40;;;;;;5033200;28;20366;-76
2021/01/08 11:28:56;;;;;;;2.25;0.90;;;6.40;89.30;;;;;;5015707;28;20028;-76
2021/01/08 11:31:42;;;;;;;2.53;1.05;;;6.30;89.40;;;;;;5033138;28;20047;-76
2021/01/08 11:34:09;;;;;;;2.50;0.93;;;6.30;89.40;;;;;;5031594;28;20106;-76
2021/01/08 11:36:36;;;;;;;2.03;0.77;;;6.20;89.70;;;;;;5032933;28;20025;-76
2021/01/08 11:39:02;;;;;;;3.70;1.10;;;6.20;89.80;;;;;;5031780;28;20029;-76
2021/01/08 11:41:27;;;;;;;2.45;0.93;;;6.10;89.80;;;;;;5033211;28;20039;-76
2021/01/08 11:43:53;;;;;;;0.77;0.73;;;6.10;89.90;;;;;;5015574;28;20494;-76
2021/01/08 11:46:20;;;;;;;1.33;0.90;;;6.10;90.00;;;;;;5033104;28;20021;-85
2021/01/08 11:48:47;;;;;;;1.70;0.80;;;6.10;90.00;;;;;;5033142;28;20018;-77
2021/01/08 11:51:13;;;;;;;2.65;1.10;;;6.10;90.00;;;;;;5028205;28;20045;-77
2021/01/08 11:53:41;;;;;;;1.85;0.80;;;6.20;89.90;;;;;;5012643;28;20050;-77
2021/01/08 11:56:08;;;;;;;1.67;0.90;;;6.20;89.80;;;;;;5013897;28;20439;-76
2021/01/08 11:58:37;;;;;;;0.82;0.80;;;6.20;89.70;;;;;;5011637;28;20018;-76
2021/01/08 12:01:04;;;;;;;2.13;1.10;;;6.30;89.60;;;;;;5012499;28;20018;-77
2021/01/08 12:03:31;;;;;;;2.22;1.00;;;6.30;89.60;;;;;;5012168;28;20478;-76
2021/01/08 12:05:56;;;;;;;0.90;0.80;;;6.30;89.60;;;;;;5013900;28;20041;-77
2021/01/08 12:08:22;;;;;;;2.92;1.30;;;6.30;89.50;;;;;;5012448;28;20374;-78
2021/01/08 12:10:48;;;;;;;3.08;1.02;;;6.30;89.40;;;;;;5012204;28;20121;-77
2021/01/08 12:13:13;;;;;;;2.70;1.00;;;6.30;89.30;;;;;;5013338;28;20559;-77
2021/01/08 12:15:39;;;;;;;1.00;0.70;;;6.30;89.30;;;;;;5011986;28;20021;-77
2021/01/08 12:18:04;;;;;;;1.70;0.98;;;6.30;89.40;;;;;;5012203;28;20045;-77
2021/01/08 12:20:30;;;;;;;1.88;0.95;;;6.30;89.40;;;;;;5011966;28;20018;-77
2021/01/08 12:22:56;;;;;;;1.05;0.80;;;6.30;89.30;;;;;;5015184;28;20056;-76
2021/01/08 12:25:21;;;;;;;1.95;0.93;;;6.30;89.30;;;;;;5014396;28;20026;-88
2021/01/08 12:27:47;;;;;;;2.88;1.17;;;6.30;89.30;;;;;;5012832;28;20018;-76
2021/01/08 12:30:14;;;;;;;1.60;1.00;;;6.30;89.30;;;;;;5014161;28;20026;-77
2021/01/08 12:32:39;;;;;;;1.20;1.10;;;6.30;89.30;;;;;;5013710;28;20083;-76
2021/01/08 12:35:06;;;;;;;1.55;1.00;;;6.40;89.30;;;;;;5011478;28;20397;-77
2021/01/08 12:37:32;;;;;;;1.00;0.80;;;6.40;89.20;;;;;;5011567;28;20018;-77
2021/01/08 12:39:57;;;;;;;0.65;0.63;;;6.40;89.10;;;;;;5013163;28;20067;-76
2021/01/08 12:42:24;;;;;;;2.05;0.98;;;6.30;89.00;;;;;;5011154;28;20022;-83
2021/01/08 12:44:49;;;;;;;1.35;0.88;;;6.30;89.00;;;;;;5011476;28;20010;-76
2021/01/08 12:47:15;;;;;;;2.30;0.80;;;6.30;89.10;;;;;;5012991;28;20032;-76
2021/01/08 12:49:41;;;;;;;2.08;0.98;;;6.40;89.20;;;;;;5012501;28;20018;-77
2021/01/08 12:52:06;;;;;;;1.42;0.88;;;6.40;89.50;;;;;;5011267;28;20042;-77
2021/01/08 12:54:32;;;;;;;1.48;0.70;;;6.40;88.80;;;;;;5011013;28;20040;-77
2021/01/08 12:56:57;;;;;;;1.15;0.73;;;6.40;88.70;;;;;;5012619;28;20026;-77
2021/01/08 12:59:23;;;;;;;2.05;0.80;;;6.40;88.80;;;;;;5011393;28;20018;-76
2021/01/08 13:01:57;;;;;;;1.75;1.30;;;6.40;88.70;;;;;;5011369;28;20114;-77
2021/01/08 13:04:23;;;;;;;1.15;0.98;;;6.50;88.70;;;;;;5012999;28;20026;-77
2021/01/08 13:06:49;;;;;;;1.52;0.88;;;6.40;88.60;;;;;;5012825;28;20025;-77